Time;durP1;ratioP1;P1;durP2;ratioP2;P2;SDS_P1;SDS_P2;PMS_P1;PMS_P2;Temp;Humidity;BMP_temperature;BMP_pressure;BME280_temperature;BME280_humidity;BME280_pressure;Samples;Min_cycle;Max_cycle;Signal;HPM_P1;HPM_P2
2024/02/08 00:03:07;;;;;;;;;;;;;;;7.97;100.00;94271.06;10400575;28;19925;-77
2024/02/08 00:08:08;;;;;;;;;;;;;;;8.07;100.00;94267.59;10383323;28;19921;-77
2024/02/08 00:13:08;;;;;;;;;;;;;;;8.15;100.00;94264.38;10391444;28;19925;-79
2024/02/08 00:18:08;;;;;;;;;;;;;;;8.17;100.00;94267.56;10392790;28;19913;-79
2024/02/08 00:23:10;;;;;;;;;;;;;;;7.58;100.00;94268.13;10401265;28;19917;-81
2024/02/08 00:28:11;;;;;;;;;;;;;;;7.75;100.00;94268.66;10405984;28;19924;-77
2024/02/08 00:33:12;;;;;;;;;;;;;;;7.60;100.00;94263.28;10422903;28;19913;-76
2024/02/08 00:38:12;;;;;;;;;;;;;;;7.61;100.00;94263.03;10402148;28;20368;-77
2024/02/08 00:43:12;;;;;;;;;;;;;;;7.54;100.00;94267.84;10403427;28;19913;-77
2024/02/08 00:48:13;;;;;;;;;;;;;;;7.50;100.00;94259.53;10389282;28;19924;-81
2024/02/08 00:53:13;;;;;;;;;;;;;;;7.31;100.00;94274.47;10410927;28;19916;-81
2024/02/08 00:58:15;;;;;;;;;;;;;;;7.21;100.00;94271.78;10399545;28;19951;-76
2024/02/08 01:03:16;;;;;;;;;;;;;;;7.27;100.00;94273.38;10401922;28;19924;-80
2024/02/08 01:08:16;;;;;;;;;;;;;;;7.29;100.00;94269.38;10400195;28;19924;-80
2024/02/08 01:13:18;;;;;;;;;;;;;;;7.35;100.00;94267.53;10386506;28;20425;-77
2024/02/08 01:18:20;;;;;;;;;;;;;;;7.39;100.00;94263.25;10379836;28;19999;-77
2024/02/08 01:23:22;;;;;;;;;;;;;;;7.46;100.00;94265.69;10397030;28;20466;-81
2024/02/08 01:28:23;;;;;;;;;;;;;;;7.39;100.00;94257.91;10375165;28;19924;-80
2024/02/08 01:33:23;;;;;;;;;;;;;;;7.10;100.00;94258.41;10382283;28;19920;-81
2024/02/08 01:38:23;;;;;;;;;;;;;;;7.22;100.00;94255.47;10374412;28;20426;-81
2024/02/08 01:43:25;;;;;;;;;;;;;;;7.07;100.00;94255.44;10376861;28;19974;-81
2024/02/08 01:48:26;;;;;;;;;;;;;;;7.13;100.00;94233.81;10396118;28;20369;-80
2024/02/08 01:53:31;;;;;;;;;;;;;;;7.06;100.00;94243.13;10391481;28;19965;-79
2024/02/08 01:58:34;;;;;;;;;;;;;;;7.17;100.00;94239.41;10422223;28;20327;-80
2024/02/08 02:03:35;;;;;;;;;;;;;;;7.20;100.00;94238.91;10410703;28;19966;-85
2024/02/08 02:08:35;;;;;;;;;;;;;;;7.22;100.00;94234.09;10427776;28;19921;-80
2024/02/08 02:13:37;;;;;;;;;;;;;;;7.13;100.00;94231.13;10427027;28;20040;-84
2024/02/08 02:18:39;;;;;;;;;;;;;;;7.14;100.00;94231.94;10427405;28;19966;-81
2024/02/08 02:23:41;;;;;;;;;;;;;;;7.09;100.00;94226.56;10427851;28;19966;-84
2024/02/08 02:28:42;;;;;;;;;;;;;;;6.83;100.00;94242.53;10417503;28;19917;-87
2024/02/08 02:33:44;;;;;;;;;;;;;;;6.89;100.00;94238.81;10391474;28;19920;-84
2024/02/08 02:38:51;;;;;;;;;;;;;;;6.67;100.00;94237.13;10426359;28;19913;-82
2024/02/08 02:43:53;;;;;;;;;;;;;;;6.76;100.00;94239.31;10453004;28;19913;-79
2024/02/08 02:48:54;;;;;;;;;;;;;;;6.73;100.00;94235.28;10422423;28;19974;-81
2024/02/08 02:53:55;;;;;;;;;;;;;;;6.74;100.00;94236.06;10419661;28;20304;-80
2024/02/08 02:59:03;;;;;;;;;;;;;;;6.49;100.00;94222.38;10415945;28;19913;-80
2024/02/08 03:04:03;;;;;;;;;;;;;;;6.56;100.00;94216.78;10433678;28;19920;-81
2024/02/08 03:09:05;;;;;;;;;;;;;;;6.24;100.00;94231.03;10451551;28;19917;-80
2024/02/08 03:14:07;;;;;;;;;;;;;;;6.27;100.00;94227.84;10433680;28;19924;-81
2024/02/08 03:19:08;;;;;;;;;;;;;;;6.26;100.00;94222.78;10433954;28;19913;-82
2024/02/08 03:24:09;;;;;;;;;;;;;;;6.21;100.00;94214.72;10433156;28;19912;-82
2024/02/08 03:29:15;;;;;;;;;;;;;;;6.15;100.00;94208.56;10433061;28;20351;-85
2024/02/08 03:34:23;;;;;;;;;;;;;;;6.01;100.00;94205.53;10418128;28;19931;-81
2024/02/08 03:39:26;;;;;;;;;;;;;;;5.94;100.00;94207.59;10360779;28;20354;-84
2024/02/08 03:44:31;;;;;;;;;;;;;;;5.90;100.00;94209.19;10406956;28;20436;-80
2024/02/08 03:49:32;;;;;;;;;;;;;;;5.91;100.00;94214.25;10452118;28;19921;-85
2024/02/08 03:54:33;;;;;;;;;;;;;;;5.99;100.00;94216.47;10431903;28;19939;-82
2024/02/08 03:59:40;;;;;;;;;;;;;;;6.01;100.00;94216.22;10438028;28;19920;-83
2024/02/08 04:04:54;;;;;;;;;;;;;;;5.97;100.00;94212.41;10432620;28;19970;-84
2024/02/08 04:09:55;;;;;;;;;;;;;;;5.79;100.00;94213.63;10386047;28;19932;-83
2024/02/08 04:57:43;;;;;;;;;;;;;;;6.02;100.00;94225.03;10388029;28;19962;-76
2024/02/08 05:02:45;;;;;;;;;;;;;;;5.81;100.00;94232.84;10412165;28;20429;-81
2024/02/08 05:07:45;;;;;;;;;;;;;;;5.91;100.00;94226.78;10411905;28;19921;-80
2024/02/08 05:12:47;;;;;;;;;;;;;;;5.88;100.00;94221.97;10428319;28;20520;-82
2024/02/08 05:17:47;;;;;;;;;;;;;;;5.85;100.00;94244.63;10426153;28;19913;-76
2024/02/08 05:22:48;;;;;;;;;;;;;;;5.74;100.00;94233.06;10423525;28;19913;-77
2024/02/08 05:27:48;;;;;;;;;;;;;;;5.60;100.00;94216.69;10400971;23;19976;-77
2024/02/08 05:32:48;;;;;;;;;;;;;;;5.62;100.00;94225.25;10358948;28;19913;-77
2024/02/08 05:37:53;;;;;;;;;;;;;;;5.78;100.00;94220.84;10377927;28;20358;-77
2024/02/08 05:42:55;;;;;;;;;;;;;;;5.72;100.00;94237.03;10362017;28;19917;-76
2024/02/08 05:47:55;;;;;;;;;;;;;;;5.85;100.00;94251.81;10361833;28;19917;-77
2024/02/08 05:52:57;;;;;;;;;;;;;;;5.43;100.00;94256.81;10344256;28;20407;-76
2024/02/08 05:57:58;;;;;;;;;;;;;;;5.59;100.00;94264.94;10359396;28;19920;-77
2024/02/08 06:03:03;;;;;;;;;;;;;;;5.54;100.00;94243.56;10368050;28;19913;-81
2024/02/08 06:08:03;;;;;;;;;;;;;;;5.57;100.00;94267.84;10341639;28;19918;-76
2024/02/08 06:13:03;;;;;;;;;;;;;;;5.79;100.00;94267.78;10359098;28;20335;-76
2024/02/08 06:18:04;;;;;;;;;;;;;;;5.91;100.00;94267.59;10361612;28;19914;-77
2024/02/08 06:23:16;;;;;;;;;;;;;;;6.08;100.00;94274.69;10360006;28;19914;-80
2024/02/08 06:28:23;;;;;;;;;;;;;;;6.24;100.00;94276.41;10361841;28;19959;-76
2024/02/08 06:33:31;;;;;;;;;;;;;;;6.36;100.00;94280.75;10359043;28;19960;-76
2024/02/08 06:38:43;;;;;;;;;;;;;;;6.42;100.00;94282.38;10359350;28;19918;-76
2024/02/08 07:42:20;;;;;;;;;;;;;;;15.16;55.96;94249.88;10407215;28;20015;-79
2024/02/08 07:47:24;;;;;;;;;;;;;;;15.17;55.09;94235.25;10387278;28;19925;-76
2024/02/08 07:52:25;;;;;;;;;;;;;;;15.45;54.93;94236.91;10400613;28;19920;-75
2024/02/08 07:57:26;;;;;;;;;;;;;;;16.08;51.23;94233.94;10388194;28;20399;-76
2024/02/08 08:02:29;;;;;;;;;;;;;;;16.09;50.18;94241.75;10387492;28;20016;-83
2024/02/08 08:07:29;;;;;;;;;;;;;;;15.55;51.50;94236.59;10410966;28;19917;-76
2024/02/08 08:12:29;;;;;;;;;;;;;;;16.50;49.23;94237.69;10385259;28;19921;-76
2024/02/08 08:17:40;;;;;;;;;;;;;;;17.35;45.81;94224.47;10386678;28;19913;-81
2024/02/08 08:22:50;;;;;;;;;;;;;;;17.13;46.68;94228.25;10374100;28;20427;-77
2024/02/08 08:28:09;;;;;;;;;;;;;;;18.38;43.06;94217.78;10387908;28;20358;-82
2024/02/08 08:33:28;;;;;;;;;;;;;;;18.03;43.89;94208.00;10388941;28;19921;-76
2024/02/08 08:38:28;;;;;;;;;;;;;;;18.65;42.41;94221.03;10388102;28;19952;-77
2024/02/08 08:43:31;;;;;;;;;;;;;;;19.10;41.18;94220.19;10405229;28;20087;-80
2024/02/08 08:48:31;;;;;;;;;;;;;;;18.07;42.78;94230.69;10404991;28;19917;-80
2024/02/08 08:53:43;;;;;;;;;;;;;;;17.30;43.94;94224.66;10408307;28;20277;-81
2024/02/08 08:58:48;;;;;;;;;;;;;;;16.01;46.72;94227.09;10387486;28;20015;-75
2024/02/08 09:03:55;;;;;;;;;;;;;;;15.67;47.77;94228.66;10387064;28;19917;-80
2024/02/08 09:08:56;;;;;;;;;;;;;;;16.15;46.08;94226.91;10404659;28;19939;-77
2024/02/08 09:13:58;;;;;;;;;;;;;;;16.25;46.50;94225.00;10404158;28;19921;-79
2024/02/08 09:24:05;;;;;;;;;;;;;;;16.68;45.19;94215.97;10403502;28;19963;-81
2024/02/08 09:29:09;;;;;;;;;;;;;;;16.87;43.51;94204.69;10401169;28;20362;-76
2024/02/08 09:34:16;;;;;;;;;;;;;;;17.11;43.29;94208.75;10385000;28;19913;-77
2024/02/08 09:39:16;;;;;;;;;;;;;;;17.59;42.17;94204.81;10375135;28;19917;-75
2024/02/08 09:44:18;;;;;;;;;;;;;;;17.80;41.30;94212.97;10384501;28;19928;-76
2024/02/08 09:49:21;;;;;;;;;;;;;;;18.20;40.37;94201.63;10385425;28;19921;-78
2024/02/08 09:54:28;;;;;;;;;;;;;;;19.05;39.34;94190.47;10385214;28;19936;-75
2024/02/08 10:04:50;;;;;;;;;;;;;;;24.33;30.34;94161.28;10403979;28;19913;-80
2024/02/08 10:09:53;;;;;;;;;;;;;;;25.82;27.94;94160.59;10379809;28;19923;-78
2024/02/08 10:14:56;;;;;;;;;;;;;;;26.99;26.35;94149.56;10363554;28;19927;-80
2024/02/08 10:30:36;;;;;;;;;;;;;;;29.04;23.87;94137.88;10351502;28;20642;-76
2024/02/08 10:35:39;;;;;;;;;;;;;;;29.22;23.56;94120.34;10384374;28;20035;-76
2024/02/08 10:40:40;;;;;;;;;;;;;;;29.08;23.17;94115.69;10384203;28;19913;-76
2024/02/08 10:45:43;;;;;;;;;;;;;;;28.37;23.49;94118.53;10383760;28;20376;-75
2024/02/08 10:50:44;;;;;;;;;;;;;;;27.66;24.16;94108.50;10391856;28;20289;-77
2024/02/08 10:55:56;;;;;;;;;;;;;;;29.62;22.49;94104.94;10392949;28;19913;-81
2024/02/08 11:06:28;;;;;;;;;;;;;;;31.49;20.86;94082.16;10385197;28;19967;-77
2024/02/08 11:11:30;;;;;;;;;;;;;;;32.25;20.51;94077.97;10392048;28;19913;-81
2024/02/08 11:16:37;;;;;;;;;;;;;;;31.94;20.24;94071.81;10406546;28;20422;-81
2024/02/08 11:21:44;;;;;;;;;;;;;;;32.36;19.81;94061.03;10409020;28;19913;-78
2024/02/08 11:26:54;;;;;;;;;;;;;;;32.82;19.54;94052.84;10392309;28;20024;-81
2024/02/08 11:31:59;;;;;;;;;;;;;;;32.09;19.51;94044.50;10407363;28;19995;-76
2024/02/08 11:37:13;;;;;;;;;;;;;;;33.00;18.36;94046.84;10408401;28;19921;-77
2024/02/08 11:42:17;;;;;;;;;;;;;;;33.29;18.33;94032.25;10390620;28;19920;-76
2024/02/08 11:47:22;;;;;;;;;;;;;;;33.35;18.42;94020.13;10407096;28;19928;-80
2024/02/08 11:52:23;;;;;;;;;;;;;;;33.44;17.81;94013.94;10391002;28;19913;-81
2024/02/08 11:57:23;;;;;;;;;;;;;;;31.85;18.84;94014.81;10390121;28;20450;-76
2024/02/08 12:02:26;;;;;;;;;;;;;;;28.84;20.95;94020.69;10389359;28;20372;-81
2024/02/08 12:07:27;;;;;;;;;;;;;;;24.36;25.30;94025.16;10389123;28;20415;-78
2024/02/08 12:12:30;;;;;;;;;;;;;;;23.00;25.88;94014.97;10389644;28;19924;-75
2024/02/08 12:17:30;;;;;;;;;;;;;;;21.70;28.22;94017.50;10388454;28;19920;-77
2024/02/08 12:22:31;;;;;;;;;;;;;;;20.42;30.19;94014.34;10406877;28;19913;-75
2024/02/08 12:27:32;;;;;;;;;;;;;;;20.09;30.19;94018.22;10406068;28;19937;-81
2024/02/08 12:32:33;;;;;;;;;;;;;;;19.79;31.00;94004.97;10383341;28;20384;-76
2024/02/08 12:37:33;;;;;;;;;;;;;;;19.47;31.13;94004.91;10387545;28;20003;-81
2024/02/08 12:42:34;;;;;;;;;;;;;;;19.26;31.58;93996.94;10388907;28;19917;-78
2024/02/08 12:47:34;;;;;;;;;;;;;;;18.64;32.00;93990.81;10387072;28;19956;-78
2024/02/08 12:52:35;;;;;;;;;;;;;;;18.33;31.32;93981.31;10411147;28;19948;-80
2024/02/08 12:57:38;;;;;;;;;;;;;;;18.10;31.37;93974.41;10406489;28;19927;-83
2024/02/08 13:02:39;;;;;;;;;;;;;;;18.09;33.01;93977.47;10386851;28;19913;-78
2024/02/08 13:07:43;;;;;;;;;;;;;;;18.05;33.42;93969.19;10386984;28;19921;-83
2024/02/08 13:12:44;;;;;;;;;;;;;;;18.01;33.28;93962.84;10369502;28;19919;-76
2024/02/08 13:17:45;;;;;;;;;;;;;;;18.04;32.92;93964.09;10404358;28;20437;-80
2024/02/08 13:22:45;;;;;;;;;;;;;;;18.13;32.33;93958.56;10386504;28;19913;-77
2024/02/08 13:27:45;;;;;;;;;;;;;;;18.07;31.85;93949.81;10385742;28;20399;-76
2024/02/08 13:32:51;;;;;;;;;;;;;;;17.96;32.15;93954.09;10401256;28;19917;-80
2024/02/08 13:37:56;;;;;;;;;;;;;;;17.52;31.68;93955.38;10384887;28;19916;-74
2024/02/08 13:42:58;;;;;;;;;;;;;;;17.44;31.17;93961.69;10403787;28;19951;-82
2024/02/08 13:48:00;;;;;;;;;;;;;;;17.37;31.55;93964.16;10369999;28;20030;-80
2024/02/08 13:53:01;;;;;;;;;;;;;;;17.37;31.89;93956.03;10411149;28;19913;-80
2024/02/08 13:58:06;;;;;;;;;;;;;;;17.25;31.65;93960.28;10386012;28;19963;-86
2024/02/08 14:03:08;;;;;;;;;;;;;;;17.24;32.05;93960.63;10384670;28;19940;-79
2024/02/08 14:08:16;;;;;;;;;;;;;;;17.34;31.82;93951.25;10398379;28;19917;-78
2024/02/08 14:13:28;;;;;;;;;;;;;;;17.14;31.45;93955.63;10399666;28;19961;-79
2024/02/08 14:18:32;;;;;;;;;;;;;;;17.13;31.32;93965.66;10383823;28;20478;-77
2024/02/08 14:23:37;;;;;;;;;;;;;;;17.00;31.59;93958.63;10384373;28;19920;-76
2024/02/08 14:28:39;;;;;;;;;;;;;;;16.97;32.46;93956.53;10383263;28;20056;-74
2024/02/08 14:33:45;;;;;;;;;;;;;;;16.96;31.44;93957.69;10346605;28;20048;-80
2024/02/08 14:38:47;;;;;;;;;;;;;;;16.79;31.79;93953.97;10374571;28;19971;-75
2024/02/08 14:43:53;;;;;;;;;;;;;;;16.71;32.12;93954.81;10380386;28;20016;-78
2024/02/08 14:48:53;;;;;;;;;;;;;;;16.55;31.61;93963.56;10381950;28;20012;-74
2024/02/08 14:53:54;;;;;;;;;;;;;;;16.53;31.54;93967.72;10398449;28;19919;-75
2024/02/08 14:59:09;;;;;;;;;;;;;;;16.34;32.04;93966.25;10380408;28;19933;-75
2024/02/08 15:04:16;;;;;;;;;;;;;;;16.24;31.89;93963.91;10380655;28;19921;-72
2024/02/08 15:14:41;;;;;;;;;;;;;;;16.00;32.94;93961.78;10393428;28;19913;-85
2024/02/08 15:19:52;;;;;;;;;;;;;;;15.94;35.65;93977.44;10377422;28;19921;-83
2024/02/08 15:24:56;;;;;;;;;;;;;;;15.70;34.29;93989.63;10382668;28;20319;-76
2024/02/08 15:30:15;;;;;;;;;;;;;;;15.53;35.91;93995.88;10400225;28;20427;-76
2024/02/08 15:40:39;;;;;;;;;;;;;;;15.29;37.13;93990.97;10404080;28;19913;-76
2024/02/08 15:45:41;;;;;;;;;;;;;;;15.10;37.44;93998.66;10403249;28;19921;-76
2024/02/08 15:50:45;;;;;;;;;;;;;;;14.98;37.82;93994.69;10405759;28;19944;-80
2024/02/08 15:55:49;;;;;;;;;;;;;;;14.81;38.69;94002.81;10395001;28;19916;-80
2024/02/08 16:06:54;;;;;;;;;;;;;;;14.47;38.78;93998.91;10406786;28;19916;-80
2024/02/08 16:11:34;;;;;;;;;;;;;;;14.22;40.44;94000.44;10395517;28;19921;-80
2024/02/08 16:16:34;;;;;;;;;;;;;;;14.14;40.00;94002.03;10388934;28;19920;-79
2024/02/08 16:21:35;;;;;;;;;;;;;;;13.68;40.52;94018.34;10388533;28;20300;-76
2024/02/08 16:26:35;;;;;;;;;;;;;;;13.22;40.30;94022.19;10387948;28;19931;-84
2024/02/08 16:31:42;;;;;;;;;;;;;;;13.01;40.92;94029.97;10405858;28;19921;-79
2024/02/08 16:36:49;;;;;;;;;;;;;;;13.06;41.88;94037.16;10387916;28;19917;-77
2024/02/08 16:47:05;;;;;;;;;;;;;;;13.01;43.76;94053.47;10404929;28;19917;-80
2024/02/08 16:52:18;;;;;;;;;;;;;;;12.98;44.98;94061.06;10387208;28;20424;-76
2024/02/08 16:57:21;;;;;;;;;;;;;;;13.04;47.32;94064.44;10405415;28;19921;-85
2024/02/08 17:07:46;;;;;;;;;;;;;;;12.57;51.54;94051.19;10404791;28;19917;-80
2024/02/08 17:12:59;;;;;;;;;;;;;;;12.52;51.19;94058.59;10389381;28;20468;-75
2024/02/08 17:18:08;;;;;;;;;;;;;;;12.53;50.73;94065.53;10388687;28;20458;-76
2024/02/08 17:23:18;;;;;;;;;;;;;;;12.38;51.66;94069.38;10386402;28;19928;-76
2024/02/08 17:28:31;;;;;;;;;;;;;;;12.19;52.05;94075.66;10373896;28;20383;-76
2024/02/08 17:33:36;;;;;;;;;;;;;;;11.99;52.11;94071.47;10386631;28;19975;-85
2024/02/08 17:38:39;;;;;;;;;;;;;;;11.87;52.25;94088.06;10386353;28;20384;-84
2024/02/08 17:43:54;;;;;;;;;;;;;;;11.83;52.60;94095.13;10369710;28;19917;-75
2024/02/08 17:48:55;;;;;;;;;;;;;;;11.79;53.04;94086.03;10386134;28;20387;-81
2024/02/08 17:54:00;;;;;;;;;;;;;;;11.75;53.86;94102.00;10404808;28;19920;-75
2024/02/08 17:59:05;;;;;;;;;;;;;;;11.59;55.09;94114.13;10401618;28;20400;-74
2024/02/08 18:04:05;;;;;;;;;;;;;;;11.69;54.81;94108.56;10386552;28;20011;-81
2024/02/08 18:09:05;;;;;;;;;;;;;;;11.85;54.28;94102.94;10394980;28;20376;-81
2024/02/08 18:14:09;;;;;;;;;;;;;;;11.93;54.72;94096.84;10384898;28;19928;-76
2024/02/08 18:19:13;;;;;;;;;;;;;;;12.04;54.29;94097.50;10385093;28;20016;-76
2024/02/08 18:24:16;;;;;;;;;;;;;;;12.18;53.92;94095.63;10383944;28;19913;-81
2024/02/08 18:29:22;;;;;;;;;;;;;;;12.31;54.43;94091.31;10384779;28;19925;-76
2024/02/08 18:34:22;;;;;;;;;;;;;;;12.27;53.84;94090.31;10385071;28;19961;-81
2024/02/08 18:39:32;;;;;;;;;;;;;;;12.18;53.90;94090.22;10384944;28;20044;-81
2024/02/08 18:44:34;;;;;;;;;;;;;;;12.13;54.26;94096.50;10384365;28;19914;-76
2024/02/08 18:49:37;;;;;;;;;;;;;;;12.03;55.24;94096.69;10402055;28;19921;-83
2024/02/08 18:54:44;;;;;;;;;;;;;;;11.84;57.17;94088.66;10385544;28;19913;-78
2024/02/08 18:59:45;;;;;;;;;;;;;;;11.61;58.81;94109.25;10402839;28;19917;-76
2024/02/08 19:04:45;;;;;;;;;;;;;;;11.67;58.89;94102.69;10401953;28;20467;-80
2024/02/08 19:09:55;;;;;;;;;;;;;;;11.74;59.14;94103.09;10392855;28;19917;-82
2024/02/08 19:14:55;;;;;;;;;;;;;;;11.77;59.63;94115.97;10391297;28;19917;-80
2024/02/08 19:19:55;;;;;;;;;;;;;;;11.68;59.51;94120.44;10409541;28;20394;-76
2024/02/08 19:24:55;;;;;;;;;;;;;;;11.63;61.01;94121.31;10390876;28;19913;-80
2024/02/08 19:29:59;;;;;;;;;;;;;;;11.59;62.16;94116.81;10391109;28;19929;-83
2024/02/08 19:35:04;;;;;;;;;;;;;;;11.54;63.51;94124.97;10409567;28;20021;-82
2024/02/08 19:40:08;;;;;;;;;;;;;;;11.48;64.48;94112.69;10390413;28;19917;-82
2024/02/08 19:45:23;;;;;;;;;;;;;;;11.39;65.25;94117.94;10413007;28;20328;-76
2024/02/08 19:50:28;;;;;;;;;;;;;;;11.29;64.67;94129.66;10408429;28;19917;-75
2024/02/08 19:55:32;;;;;;;;;;;;;;;11.20;64.96;94131.41;10390679;28;20373;-85
2024/02/08 20:00:32;;;;;;;;;;;;;;;11.10;65.59;94130.47;10407678;28;19919;-81
2024/02/08 20:05:35;;;;;;;;;;;;;;;10.97;66.99;94136.56;10391022;28;20402;-76
2024/02/08 20:10:39;;;;;;;;;;;;;;;10.82;68.41;94140.25;10379127;28;19994;-81
2024/02/08 20:15:40;;;;;;;;;;;;;;;10.74;68.62;94140.91;10375729;28;19917;-80
2024/02/08 20:20:40;;;;;;;;;;;;;;;10.48;68.40;94141.22;10396592;28;19917;-76
2024/02/08 20:25:43;;;;;;;;;;;;;;;10.30;70.72;94136.56;10377410;28;20391;-79
2024/02/08 20:30:48;;;;;;;;;;;;;;;10.20;72.32;94140.16;10363819;28;20567;-79
2024/02/08 20:35:49;;;;;;;;;;;;;;;9.98;77.26;94144.16;10377768;28;19932;-80
2024/02/08 20:40:49;;;;;;;;;;;;;;;9.90;79.19;94152.81;10374855;28;19949;-72
2024/02/08 20:45:50;;;;;;;;;;;;;;;9.75;80.89;94154.56;10391431;28;20374;-78
2024/02/08 20:50:50;;;;;;;;;;;;;;;9.74;75.82;94144.91;10380078;28;19917;-76
2024/02/08 20:55:51;;;;;;;;;;;;;;;9.68;77.47;94156.75;10395947;28;19996;-76
2024/02/08 21:00:52;;;;;;;;;;;;;;;9.58;74.80;94159.53;10377622;28;19919;-79
2024/02/08 21:05:54;;;;;;;;;;;;;;;9.54;74.73;94166.53;10377157;28;19967;-81
2024/02/08 21:10:56;;;;;;;;;;;;;;;9.42;77.16;94169.59;10381342;28;20398;-79
2024/02/08 21:15:57;;;;;;;;;;;;;;;9.23;79.65;94175.59;10381414;28;19917;-79
2024/02/08 21:20:58;;;;;;;;;;;;;;;8.99;78.95;94172.78;10377482;28;19936;-75
2024/02/08 21:26:00;;;;;;;;;;;;;;;8.77;81.55;94177.75;10377466;28;19925;-78
2024/02/08 21:31:01;;;;;;;;;;;;;;;8.65;83.56;94176.19;10377857;28;19921;-80
2024/02/08 21:36:03;;;;;;;;;;;;;;;8.53;86.46;94175.69;10385676;28;20311;-75
2024/02/08 21:41:04;;;;;;;;;;;;;;;8.44;88.56;94171.94;10376560;28;20372;-79
2024/02/08 21:46:04;;;;;;;;;;;;;;;8.53;87.94;94176.50;10376425;28;19927;-74
2024/02/08 21:51:07;;;;;;;;;;;;;;;8.58;87.74;94174.88;10369421;28;20079;-75
2024/02/08 21:56:11;;;;;;;;;;;;;;;8.51;89.49;94167.94;10369362;28;20034;-76
2024/02/08 22:01:13;;;;;;;;;;;;;;;8.38;91.28;94173.84;10370242;28;19921;-76
2024/02/08 22:06:19;;;;;;;;;;;;;;;8.43;93.71;94176.50;10368346;28;20004;-77
2024/02/08 22:11:20;;;;;;;;;;;;;;;8.34;94.21;94167.41;10389989;28;19963;-75
2024/02/08 22:16:20;;;;;;;;;;;;;;;8.36;94.61;94152.69;10371511;28;19928;-75
2024/02/08 22:21:21;;;;;;;;;;;;;;;8.16;96.31;94150.06;10391851;28;19923;-82
2024/02/08 22:26:21;;;;;;;;;;;;;;;8.26;96.30;94150.06;10373738;28;19929;-75
2024/02/08 22:31:21;;;;;;;;;;;;;;;8.18;97.18;94158.66;10373251;28;19929;-85
2024/02/08 22:36:22;;;;;;;;;;;;;;;8.09;99.50;94144.22;10370081;28;20319;-76
2024/02/08 22:41:22;;;;;;;;;;;;;;;7.97;99.95;94152.53;10369600;28;20350;-82
2024/02/08 22:46:23;;;;;;;;;;;;;;;7.94;100.00;94137.84;10376454;28;19964;-81
2024/02/08 22:51:24;;;;;;;;;;;;;;;7.95;100.00;94139.41;10365986;28;20396;-82
2024/02/08 22:56:26;;;;;;;;;;;;;;;7.93;100.00;94144.25;10366898;28;20054;-81
2024/02/08 23:01:37;;;;;;;;;;;;;;;7.74;100.00;94148.56;10399522;28;19917;-78
2024/02/08 23:06:42;;;;;;;;;;;;;;;7.81;100.00;94147.19;10399360;28;20170;-79
2024/02/08 23:11:49;;;;;;;;;;;;;;;7.89;100.00;94143.19;10381836;28;19948;-81
2024/02/08 23:16:50;;;;;;;;;;;;;;;7.94;100.00;94120.97;10397872;28;19913;-75
2024/02/08 23:21:51;;;;;;;;;;;;;;;7.91;100.00;94119.66;10380990;28;19999;-76
2024/02/08 23:26:51;;;;;;;;;;;;;;;7.89;100.00;94127.13;10391182;28;20043;-84
2024/02/08 23:31:51;;;;;;;;;;;;;;;7.80;100.00;94123.41;10395695;28;20366;-82
2024/02/08 23:36:54;;;;;;;;;;;;;;;7.66;100.00;94132.00;10385191;28;19924;-77
2024/02/08 23:41:56;;;;;;;;;;;;;;;7.60;100.00;94126.91;10393559;28;19913;-80
2024/02/08 23:46:58;;;;;;;;;;;;;;;7.47;100.00;94129.06;10374115;28;19944;-80
2024/02/08 23:51:58;;;;;;;;;;;;;;;7.45;100.00;94133.06;10394507;28;20000;-77
2024/02/08 23:56:59;;;;;;;;;;;;;;;7.09;100.00;94141.06;10408737;28;19923;-77
